createdAt,value
2018-03-03T00:01:26.096Z,51.42
2018-03-03T00:03:53.691Z,46.10
2018-03-03T00:06:21.726Z,39.40
2018-03-03T00:08:49.524Z,45.38
2018-03-03T00:11:17.149Z,53.60
2018-03-03T00:13:44.976Z,47.75
2018-03-03T00:16:12.676Z,47.03
2018-03-03T00:18:40.316Z,47.60
2018-03-03T00:21:07.924Z,55.10
2018-03-03T00:23:35.566Z,48.42
2018-03-03T00:26:03.165Z,49.45
2018-03-03T00:28:30.780Z,46.88
2018-03-03T00:30:59.168Z,47.30
2018-03-03T00:33:27.542Z,45.67
2018-03-03T00:35:55.166Z,45.10
2018-03-03T00:38:22.762Z,40.35
2018-03-03T00:40:50.349Z,49.92
2018-03-03T00:43:18.385Z,45.80
2018-03-03T00:45:45.981Z,48.05
2018-03-03T00:48:13.624Z,47.60
2018-03-03T00:50:42.375Z,59.10
2018-03-03T00:53:09.983Z,42.72
2018-03-03T00:55:37.778Z,47.20
2018-03-03T00:58:05.391Z,48.47
2018-03-03T01:00:33.060Z,53.72
2018-03-03T01:03:00.656Z,52.28
2018-03-03T01:05:28.245Z,46.70
2018-03-03T01:07:55.862Z,44.03
2018-03-03T01:10:23.467Z,52.30
2018-03-03T01:12:51.094Z,55.15
2018-03-03T01:15:18.723Z,52.40
2018-03-03T01:17:46.335Z,50.00
2018-03-03T01:20:14.717Z,58.40
2018-03-03T01:22:43.064Z,43.30
2018-03-03T01:25:10.699Z,48.58
2018-03-03T01:27:38.445Z,57.97
2018-03-03T01:30:06.071Z,51.78
2018-03-03T01:32:33.693Z,51.78
2018-03-03T01:35:03.104Z,55.85
2018-03-03T01:37:30.739Z,56.35
2018-03-03T01:39:58.726Z,57.90
2018-03-03T01:42:26.372Z,58.63
2018-03-03T01:44:54.770Z,54.85
2018-03-03T01:47:22.381Z,57.60
2018-03-03T01:49:50.010Z,65.50
2018-03-03T01:52:17.610Z,61.83
2018-03-03T01:54:45.280Z,57.08
2018-03-03T01:57:12.906Z,53.25
2018-03-03T01:59:40.506Z,58.08
2018-03-03T02:02:08.159Z,50.25
2018-03-03T02:04:36.535Z,53.45
2018-03-03T02:07:04.154Z,55.17
2018-03-03T02:09:31.790Z,58.92
2018-03-03T02:11:59.394Z,57.47
2018-03-03T02:14:27.057Z,48.45
2018-03-03T02:16:55.431Z,54.83
2018-03-03T02:19:23.039Z,54.53
2018-03-03T02:21:50.896Z,59.10
2018-03-03T02:24:18.527Z,49.10
2018-03-03T02:26:46.142Z,60.15
2018-03-03T02:29:14.484Z,58.87
2018-03-03T02:31:42.166Z,57.60
2018-03-03T02:34:09.851Z,53.75
2018-03-03T02:36:37.481Z,53.20
2018-03-03T02:39:06.657Z,54.65
2018-03-03T02:41:34.410Z,63.87
2018-03-03T02:44:02.011Z,56.70
2018-03-03T02:46:29.651Z,57.47
2018-03-03T02:48:57.252Z,54.35
2018-03-03T02:51:24.854Z,57.05
2018-03-03T02:53:53.249Z,56.53
2018-03-03T02:56:20.861Z,66.95
2018-03-03T02:58:48.512Z,66.95
2018-03-03T03:01:16.189Z,58.95
2018-03-03T03:03:43.802Z,61.75
2018-03-03T03:06:11.430Z,55.15
2018-03-03T03:08:39.036Z,63.08
2018-03-03T03:11:06.676Z,60.80
2018-03-03T03:13:34.298Z,65.12
2018-03-03T03:16:01.903Z,55.10
2018-03-03T03:18:29.621Z,52.60
2018-03-03T03:20:57.250Z,52.75
2018-03-03T03:23:25.660Z,58.87
2018-03-03T03:25:53.262Z,54.65
2018-03-03T03:28:20.854Z,63.60
2018-03-03T03:30:48.498Z,61.22
2018-03-03T03:33:16.106Z,59.30
2018-03-03T03:35:43.744Z,55.28
2018-03-03T03:38:14.298Z,64.82
2018-03-03T03:40:41.911Z,59.45
2018-03-03T03:43:09.534Z,66.20
2018-03-03T03:45:37.811Z,69.45
2018-03-03T03:48:05.434Z,61.35
2018-03-03T03:50:33.034Z,58.47
2018-03-03T03:53:01.436Z,73.18
2018-03-03T03:55:29.814Z,66.10
2018-03-03T03:57:59.355Z,60.78
2018-03-03T04:00:26.988Z,63.38
2018-03-03T04:02:54.606Z,61.30
2018-03-03T04:05:22.236Z,61.55
2018-03-03T04:07:49.915Z,58.45
2018-03-03T04:10:17.566Z,50.75
2018-03-03T04:12:45.181Z,55.95
2018-03-03T04:15:13.568Z,59.03
2018-03-03T04:17:41.170Z,63.30
2018-03-03T04:20:08.805Z,61.88
2018-03-03T04:22:36.414Z,67.15
2018-03-03T04:25:05.042Z,71.40
2018-03-03T04:27:32.677Z,82.72
2018-03-03T04:30:01.073Z,60.35
2018-03-03T04:32:28.705Z,65.18
2018-03-03T04:34:56.320Z,69.75
2018-03-03T04:37:24.754Z,69.30
2018-03-03T04:39:52.366Z,71.57
2018-03-03T04:42:20.757Z,66.78
2018-03-03T04:44:49.130Z,71.20
2018-03-03T04:47:16.807Z,61.80
2018-03-03T04:49:44.418Z,62.05
2018-03-03T04:52:12.055Z,60.17
2018-03-03T04:54:39.680Z,72.95
2018-03-03T04:57:08.365Z,73.65
2018-03-03T04:59:41.638Z,56.30
2018-03-03T05:02:13.018Z,75.93
2018-03-03T05:04:47.414Z,59.78
2018-03-03T05:07:20.941Z,74.18
2018-03-03T05:09:48.591Z,68.15
2018-03-03T05:12:18.836Z,66.20
2018-03-03T05:14:49.157Z,61.05
2018-03-03T05:20:45.115Z,61.47
2018-03-03T05:23:18.382Z,61.20
2018-03-03T05:25:46.952Z,68.10
2018-03-03T05:28:20.276Z,60.70
2018-03-03T05:30:54.768Z,68.70
2018-03-03T05:33:27.970Z,57.20
2018-03-03T05:39:05.302Z,62.58
2018-03-03T05:41:38.558Z,54.28
2018-03-03T05:44:11.936Z,69.18
2018-03-03T05:46:45.304Z,60.12
2018-03-03T05:49:17.660Z,61.65
2018-03-03T05:51:51.007Z,66.57
2018-03-03T05:54:25.046Z,63.83
2018-03-03T05:56:58.433Z,69.43
2018-03-03T06:02:48.617Z,63.78
2018-03-03T06:05:23.739Z,86.03
2018-03-03T06:07:57.220Z,77.68
2018-03-03T06:10:25.751Z,67.47
2018-03-03T06:12:53.550Z,66.40
2018-03-03T06:15:21.178Z,70.25
2018-03-03T06:17:49.550Z,74.95
2018-03-03T06:20:17.177Z,61.25
2018-03-03T06:22:44.793Z,72.28
2018-03-03T06:25:12.501Z,75.28
2018-03-03T06:27:40.901Z,68.45
2018-03-03T06:30:08.619Z,62.58
2018-03-03T06:32:36.218Z,68.32
2018-03-03T06:35:03.890Z,64.93
2018-03-03T06:37:31.518Z,73.30
2018-03-03T06:39:59.216Z,69.82
2018-03-03T06:42:26.813Z,67.15
2018-03-03T06:44:54.425Z,73.40
2018-03-03T06:47:22.067Z,75.62
2018-03-03T06:49:49.731Z,74.50
2018-03-03T06:52:17.422Z,74.12
2018-03-03T06:54:45.037Z,66.75
2018-03-03T06:57:12.648Z,74.68
2018-03-03T06:59:40.284Z,61.20
2018-03-03T07:02:07.946Z,62.33
2018-03-03T07:04:35.558Z,76.75
2018-03-03T07:07:03.228Z,53.95
2018-03-03T07:09:31.094Z,59.63
2018-03-03T07:11:58.705Z,63.08
2018-03-03T07:14:26.345Z,70.60
2018-03-03T07:16:53.949Z,68.57
2018-03-03T07:19:21.570Z,64.25
2018-03-03T07:21:49.167Z,69.43
2018-03-03T07:24:16.838Z,62.55
2018-03-03T07:26:44.575Z,66.97
2018-03-03T07:29:13.022Z,58.50
2018-03-03T07:31:40.617Z,71.05
2018-03-03T07:34:08.251Z,69.12
2018-03-03T07:36:35.845Z,68.47
2018-03-03T07:39:03.484Z,68.95
2018-03-03T07:41:31.081Z,70.85
2018-03-03T07:43:58.699Z,74.32
2018-03-03T07:46:27.086Z,66.93
2018-03-03T07:48:54.689Z,72.55
2018-03-03T07:51:22.319Z,70.35
2018-03-03T07:53:50.080Z,84.10
2018-03-03T07:56:18.162Z,65.95
2018-03-03T07:58:48.715Z,65.60
2018-03-03T08:01:16.329Z,82.72
2018-03-03T08:03:44.693Z,62.45
2018-03-03T08:06:12.743Z,68.28
2018-03-03T08:08:40.396Z,62.62
2018-03-03T08:11:08.406Z,63.47
2018-03-03T08:13:37.157Z,54.50
2018-03-03T08:16:05.170Z,64.20
2018-03-03T08:18:32.806Z,63.45
2018-03-03T08:21:00.576Z,54.20
2018-03-03T08:23:28.989Z,56.80
2018-03-03T08:25:57.363Z,56.15
2018-03-03T08:28:25.027Z,53.92
2018-03-03T08:30:52.621Z,59.67
2018-03-03T08:33:20.244Z,56.65
2018-03-03T08:35:47.861Z,57.70
2018-03-03T08:38:15.574Z,59.25
2018-03-03T08:40:43.488Z,57.97
2018-03-03T08:43:11.088Z,60.55
2018-03-03T08:45:38.838Z,60.92
2018-03-03T08:48:07.036Z,59.67
2018-03-03T08:50:34.703Z,53.15
2018-03-03T08:53:02.337Z,49.85
2018-03-03T08:55:30.008Z,54.80
2018-03-03T08:57:57.830Z,53.35
2018-03-03T09:00:25.699Z,52.95
2018-03-03T09:02:53.479Z,61.47
2018-03-03T09:05:21.182Z,62.33
2018-03-03T09:07:49.894Z,53.13
2018-03-03T09:10:17.502Z,57.25
2018-03-03T09:12:47.493Z,53.03
2018-03-03T09:15:15.122Z,53.55
2018-03-03T09:17:42.737Z,56.67
2018-03-03T09:20:10.911Z,51.75
2018-03-03T09:22:38.538Z,52.05
2018-03-03T09:25:06.317Z,54.85
2018-03-03T09:27:36.543Z,58.25
2018-03-03T09:30:05.368Z,56.72
2018-03-03T09:32:32.988Z,58.47
2018-03-03T09:35:01.673Z,55.47
2018-03-03T09:37:29.487Z,55.50
2018-03-03T09:39:57.225Z,49.70
2018-03-03T09:42:24.830Z,55.60
2018-03-03T09:44:52.461Z,59.20
2018-03-03T09:47:20.104Z,60.65
2018-03-03T09:49:47.750Z,59.97
2018-03-03T09:52:15.347Z,56.90
2018-03-03T09:54:43.043Z,53.65
2018-03-03T09:57:10.634Z,55.95
2018-03-03T09:59:38.322Z,61.37
2018-03-03T10:02:06.706Z,56.80
2018-03-03T10:04:34.319Z,55.38
2018-03-03T10:07:01.950Z,54.40
2018-03-03T10:09:29.561Z,52.25
2018-03-03T10:11:57.194Z,62.78
2018-03-03T10:14:24.787Z,62.25
2018-03-03T10:16:52.407Z,56.63
2018-03-03T10:19:20.001Z,59.28
2018-03-03T10:21:47.616Z,54.40
2018-03-03T10:24:15.979Z,56.65
2018-03-03T10:26:43.607Z,58.45
2018-03-03T10:29:11.354Z,53.90
2018-03-03T10:31:39.847Z,58.50
2018-03-03T10:34:08.409Z,47.42
2018-03-03T10:36:36.028Z,54.55
2018-03-03T10:39:04.442Z,55.42
2018-03-03T10:41:32.033Z,57.83
2018-03-03T10:43:59.646Z,60.12
2018-03-03T10:46:27.253Z,60.92
2018-03-03T10:48:54.852Z,59.92
2018-03-03T10:51:22.447Z,61.58
2018-03-03T10:53:50.086Z,56.13
2018-03-03T10:56:17.699Z,65.90
2018-03-03T10:58:45.302Z,56.47
2018-03-03T11:01:13.694Z,67.50
2018-03-03T11:03:42.053Z,60.88
2018-03-03T11:06:09.656Z,60.28
2018-03-03T11:08:38.013Z,57.20
2018-03-03T11:11:05.658Z,63.80
2018-03-03T11:13:33.251Z,61.75
2018-03-03T11:16:03.822Z,64.87
2018-03-03T11:18:31.438Z,68.22
2018-03-03T11:20:59.068Z,55.10
2018-03-03T11:23:26.675Z,55.28
2018-03-03T11:25:54.272Z,66.45
2018-03-03T11:28:21.891Z,58.92
2018-03-03T11:30:49.489Z,59.10
2018-03-03T11:33:17.107Z,66.22
2018-03-03T11:35:44.694Z,63.40
2018-03-03T11:38:12.313Z,59.20
2018-03-03T11:40:41.254Z,55.72
2018-03-03T11:43:10.196Z,63.22
2018-03-03T11:45:37.931Z,58.53
2018-03-03T11:48:05.836Z,58.10
2018-03-03T11:50:33.787Z,56.97
2018-03-03T11:53:01.568Z,59.10
2018-03-03T11:55:29.217Z,58.33
2018-03-03T11:57:57.585Z,66.55
2018-03-03T12:00:25.238Z,56.50
2018-03-03T12:02:52.839Z,62.97
2018-03-03T12:05:20.527Z,57.58
2018-03-03T12:07:48.088Z,56.75
2018-03-03T12:10:16.470Z,57.58
2018-03-03T12:12:44.068Z,56.95
2018-03-03T12:15:11.690Z,65.03
2018-03-03T12:17:39.269Z,61.75
2018-03-03T12:20:06.878Z,58.33
2018-03-03T12:22:35.254Z,57.22
2018-03-03T12:25:02.856Z,58.05
2018-03-03T12:27:31.234Z,56.92
2018-03-03T12:29:59.600Z,56.10
2018-03-03T12:32:27.232Z,58.53
2018-03-03T12:34:54.824Z,55.65
2018-03-03T12:37:22.439Z,60.47
2018-03-03T12:39:50.030Z,55.78
2018-03-03T12:42:18.430Z,57.88
2018-03-03T12:44:46.013Z,58.15
2018-03-03T12:47:13.618Z,59.95
2018-03-03T12:49:41.250Z,56.45
2018-03-03T12:52:08.834Z,63.25
2018-03-03T12:54:36.458Z,68.57
2018-03-03T12:57:04.075Z,60.85
2018-03-03T12:59:31.699Z,54.42
2018-03-03T13:01:59.290Z,61.47
2018-03-03T13:04:26.938Z,57.17
2018-03-03T13:06:54.588Z,65.57
2018-03-03T13:09:22.233Z,57.50
2018-03-03T13:11:49.870Z,56.97
2018-03-03T13:14:17.466Z,54.92
2018-03-03T13:16:45.842Z,56.75
2018-03-03T13:19:13.447Z,55.42
2018-03-03T13:21:41.836Z,52.55
2018-03-03T13:24:09.435Z,52.72
2018-03-03T13:26:37.055Z,50.22
2018-03-03T13:29:04.696Z,48.22
2018-03-03T13:31:32.372Z,60.12
2018-03-03T13:33:59.978Z,53.83
2018-03-03T13:36:27.599Z,60.85
2018-03-03T13:38:57.456Z,55.50
2018-03-03T13:41:27.527Z,51.10
2018-03-03T13:43:56.305Z,56.22
2018-03-03T13:46:25.525Z,55.75
2018-03-03T13:48:54.356Z,58.20
2018-03-03T13:51:21.961Z,59.15
2018-03-03T13:53:49.574Z,49.40
2018-03-03T13:56:17.274Z,51.40
2018-03-03T13:58:45.674Z,51.37
2018-03-03T14:01:13.606Z,49.83
2018-03-03T14:03:42.389Z,51.42
2018-03-03T14:06:10.070Z,53.55
2018-03-03T14:08:37.721Z,48.55
2018-03-03T14:11:05.327Z,47.97
2018-03-03T14:13:33.118Z,44.17
2018-03-03T14:16:00.747Z,45.92
2018-03-03T14:18:29.798Z,50.78
2018-03-03T14:20:58.463Z,45.90
2018-03-03T14:23:26.154Z,51.13
2018-03-03T14:25:53.800Z,46.97
2018-03-03T14:28:21.415Z,51.17
2018-03-03T14:30:49.030Z,50.72
2018-03-03T14:33:16.654Z,50.17
2018-03-03T14:35:44.323Z,48.95
2018-03-03T14:38:11.960Z,51.25
2018-03-03T14:40:39.587Z,47.95
2018-03-03T14:43:07.277Z,45.28
2018-03-03T14:45:34.912Z,46.95
2018-03-03T14:48:02.582Z,52.58
2018-03-03T14:50:30.233Z,50.88
2018-03-03T14:52:58.021Z,44.50
2018-03-03T14:55:25.837Z,47.53
2018-03-03T14:57:53.461Z,43.90
2018-03-03T15:00:21.078Z,42.88
2018-03-03T15:02:49.266Z,44.80
2018-03-03T15:05:18.487Z,43.85
2018-03-03T15:07:46.737Z,45.75
2018-03-03T15:10:15.127Z,49.00
2018-03-03T15:12:44.211Z,45.90
2018-03-03T15:15:13.033Z,48.92
2018-03-03T15:17:45.811Z,52.17
2018-03-03T15:20:16.544Z,48.83
2018-03-03T15:22:45.018Z,41.70
2018-03-03T15:25:15.115Z,43.10
2018-03-03T15:27:44.555Z,46.47
2018-03-03T15:30:13.248Z,45.05
2018-03-03T15:32:41.859Z,52.10
2018-03-03T15:35:11.749Z,42.47
2018-03-03T15:37:44.987Z,45.08
2018-03-03T15:40:16.875Z,60.65
2018-03-03T15:42:48.809Z,44.33
2018-03-03T15:45:19.285Z,43.75
2018-03-03T15:47:47.781Z,51.20
2018-03-03T15:50:16.199Z,49.42
2018-03-03T15:52:43.826Z,49.28
2018-03-03T15:55:11.435Z,47.40
2018-03-03T15:57:39.888Z,52.85
2018-03-03T16:00:07.837Z,47.05
2018-03-03T16:02:35.507Z,51.70
2018-03-03T16:05:03.131Z,47.60
2018-03-03T16:07:30.783Z,50.67
2018-03-03T16:09:58.462Z,51.20
2018-03-03T16:12:26.074Z,50.08
2018-03-03T16:14:53.678Z,50.83
2018-03-03T16:17:22.378Z,45.38
2018-03-03T16:19:50.727Z,41.00
2018-03-03T16:22:20.484Z,42.92
2018-03-03T16:24:48.155Z,47.45
2018-03-03T16:27:16.528Z,43.50
2018-03-03T16:29:44.955Z,43.63
2018-03-03T16:32:12.692Z,43.33
2018-03-03T16:34:40.327Z,50.53
2018-03-03T16:37:08.324Z,45.10
2018-03-03T16:39:36.782Z,40.10
2018-03-03T16:42:04.551Z,45.95
2018-03-03T16:44:33.545Z,43.72
2018-03-03T16:47:02.731Z,44.95
2018-03-03T16:49:31.558Z,46.37
2018-03-03T16:51:59.776Z,42.78
2018-03-03T16:54:30.042Z,42.78
2018-03-03T16:56:59.945Z,45.28
2018-03-03T16:59:28.452Z,41.80
2018-03-03T17:01:56.319Z,42.70
2018-03-03T17:04:25.484Z,40.55
2018-03-03T17:06:58.694Z,46.97
2018-03-03T17:09:26.911Z,47.50
2018-03-03T17:11:59.336Z,39.17
2018-03-03T17:14:27.132Z,41.47
2018-03-03T17:16:54.796Z,41.90
2018-03-03T17:19:22.411Z,38.88
2018-03-03T17:21:50.786Z,45.47
2018-03-03T17:24:18.410Z,43.53
2018-03-03T17:26:46.014Z,43.90
2018-03-03T17:29:14.123Z,43.87
2018-03-03T17:31:42.722Z,44.88
2018-03-03T17:34:11.519Z,39.60
2018-03-03T17:36:39.973Z,40.65
2018-03-03T17:39:07.596Z,39.72
2018-03-03T17:41:35.388Z,45.28
2018-03-03T17:44:03.052Z,43.92
2018-03-03T17:46:32.852Z,41.13
2018-03-03T17:49:00.518Z,44.35
2018-03-03T17:51:28.155Z,40.45
2018-03-03T17:53:55.756Z,36.55
2018-03-03T17:56:23.544Z,44.88
2018-03-03T17:58:51.164Z,41.17
2018-03-03T18:01:19.584Z,41.03
2018-03-03T18:03:48.262Z,43.83
2018-03-03T18:06:15.905Z,47.85
2018-03-03T18:08:43.540Z,48.60
2018-03-03T18:11:11.414Z,42.13
2018-03-03T18:13:39.122Z,44.53
2018-03-03T18:16:06.755Z,49.40
2018-03-03T18:18:35.233Z,47.55
2018-03-03T18:21:03.386Z,49.20
2018-03-03T18:23:31.074Z,45.70
2018-03-03T18:25:58.750Z,45.67
2018-03-03T18:28:26.653Z,49.67
2018-03-03T18:30:55.346Z,49.92
2018-03-03T18:33:25.829Z,43.65
2018-03-03T18:35:53.959Z,45.10
2018-03-03T18:38:21.934Z,43.40
2018-03-03T18:40:50.458Z,50.75
2018-03-03T18:43:18.466Z,48.35
2018-03-03T18:45:46.227Z,48.13
2018-03-03T18:48:14.164Z,45.50
2018-03-03T18:50:41.936Z,43.97
2018-03-03T18:53:10.333Z,50.05
2018-03-03T18:55:38.248Z,51.83
2018-03-03T18:58:06.066Z,52.10
2018-03-03T19:00:36.135Z,44.65
2018-03-03T19:03:05.430Z,51.90
2018-03-03T19:05:33.278Z,47.72
2018-03-03T19:08:01.014Z,53.70
2018-03-03T19:10:29.610Z,51.92
2018-03-03T19:12:57.718Z,51.70
2018-03-03T19:15:27.465Z,60.67
2018-03-03T19:17:55.351Z,52.75
2018-03-03T19:20:23.430Z,49.95
2018-03-03T19:22:52.230Z,47.62
2018-03-03T19:25:20.098Z,54.22
2018-03-03T19:27:47.808Z,51.40
2018-03-03T19:30:16.188Z,50.15
2018-03-03T19:32:43.986Z,43.55
2018-03-03T19:35:12.569Z,50.45
2018-03-03T19:37:40.652Z,53.20
2018-03-03T19:40:08.636Z,51.47
2018-03-03T19:42:36.576Z,53.25
2018-03-03T19:45:04.537Z,55.95
2018-03-03T19:47:32.569Z,49.88
2018-03-03T19:50:02.144Z,56.25
2018-03-03T19:52:32.535Z,46.63
2018-03-03T19:55:01.725Z,55.75
2018-03-03T19:57:30.313Z,89.28
2018-03-03T19:59:58.159Z,81.82
2018-03-03T20:02:26.795Z,55.75
2018-03-03T20:04:54.478Z,48.45
2018-03-03T20:07:22.135Z,47.92
2018-03-03T20:09:49.755Z,55.30
2018-03-03T20:12:17.527Z,52.35
2018-03-03T20:14:45.142Z,52.35
2018-03-03T20:17:13.928Z,52.40
2018-03-03T20:19:41.686Z,46.60
2018-03-03T20:22:09.792Z,51.92
2018-03-03T20:24:37.426Z,51.00
2018-03-03T20:27:05.501Z,52.60
2018-03-03T20:29:33.456Z,45.88
2018-03-03T20:32:01.083Z,44.83
2018-03-03T20:34:28.847Z,54.60
2018-03-03T20:36:56.651Z,47.78
2018-03-03T20:39:24.439Z,44.63
2018-03-03T20:41:52.758Z,50.42
2018-03-03T20:44:20.684Z,51.70
2018-03-03T20:46:48.711Z,50.95
2018-03-03T20:49:16.511Z,54.47
2018-03-03T20:51:44.128Z,42.05
2018-03-03T20:54:11.767Z,55.83
2018-03-03T20:56:39.563Z,48.30
2018-03-03T20:59:08.282Z,45.12
2018-03-03T21:01:35.916Z,53.92
2018-03-03T21:04:04.181Z,56.97
2018-03-03T21:06:31.902Z,50.70
2018-03-03T21:09:00.564Z,45.22
2018-03-03T21:11:36.019Z,65.10
2018-03-03T21:14:05.891Z,58.17
2018-03-03T21:16:34.643Z,52.15
2018-03-03T21:19:05.178Z,56.70
2018-03-03T21:21:33.962Z,51.53
2018-03-03T21:24:05.153Z,52.95
2018-03-03T21:26:36.283Z,53.17
2018-03-03T21:29:08.813Z,50.12
2018-03-03T21:31:46.375Z,54.85
2018-03-03T21:34:24.141Z,61.40
2018-03-03T21:36:58.868Z,44.65
2018-03-03T21:39:34.406Z,51.50
2018-03-03T21:42:06.967Z,53.55
2018-03-03T21:44:41.269Z,52.83
2018-03-03T21:47:10.087Z,54.20
2018-03-03T21:49:37.732Z,49.75
2018-03-03T21:52:06.112Z,54.83
2018-03-03T21:54:34.294Z,49.53
2018-03-03T21:57:02.895Z,45.75
2018-03-03T21:59:30.514Z,50.90
2018-03-03T22:01:59.057Z,56.33
2018-03-03T22:04:27.045Z,47.60
2018-03-03T22:06:54.932Z,55.53
2018-03-03T22:09:22.585Z,61.35
2018-03-03T22:11:50.413Z,61.47
2018-03-03T22:14:18.031Z,53.08
2018-03-03T22:16:46.632Z,52.92
2018-03-03T22:19:15.089Z,56.40
2018-03-03T22:21:43.720Z,53.47
2018-03-03T22:24:11.915Z,55.20
2018-03-03T22:26:39.547Z,55.05
2018-03-03T22:29:07.166Z,53.80
2018-03-03T22:31:35.179Z,55.22
2018-03-03T22:34:02.964Z,53.80
2018-03-03T22:36:30.632Z,48.30
2018-03-03T22:38:58.541Z,52.78
2018-03-03T22:41:26.671Z,50.85
2018-03-03T22:43:55.651Z,51.53
2018-03-03T22:46:23.323Z,49.72
2018-03-03T22:48:51.794Z,52.65
2018-03-03T22:51:19.591Z,47.97
2018-03-03T22:53:47.538Z,60.25
2018-03-03T22:56:16.057Z,50.55
2018-03-03T22:58:43.904Z,54.13
2018-03-03T23:01:11.689Z,49.70
2018-03-03T23:03:39.456Z,59.50
2018-03-03T23:06:07.184Z,55.25
2018-03-03T23:08:36.588Z,51.03
2018-03-03T23:11:04.223Z,61.92
2018-03-03T23:13:31.826Z,56.20
2018-03-03T23:15:59.518Z,52.40
2018-03-03T23:18:27.896Z,55.45
2018-03-03T23:20:55.548Z,58.05
2018-03-03T23:23:23.147Z,59.83
2018-03-03T23:25:50.760Z,55.88
2018-03-03T23:28:18.372Z,52.95
2018-03-03T23:30:46.883Z,53.92
2018-03-03T23:33:14.498Z,53.67
2018-03-03T23:35:42.093Z,56.03
2018-03-03T23:38:09.911Z,55.25
2018-03-03T23:40:37.517Z,59.15
2018-03-03T23:43:05.240Z,59.75
2018-03-03T23:45:33.367Z,58.72
2018-03-03T23:48:01.762Z,60.95
2018-03-03T23:50:29.451Z,53.72
2018-03-03T23:52:57.082Z,58.15
2018-03-03T23:55:24.704Z,56.45
2018-03-03T23:57:53.890Z,58.80
